createdAt,value
2017-12-06T00:00:13.701Z,13.63
2017-12-06T00:02:41.159Z,10.97
2017-12-06T00:05:08.634Z,12.87
2017-12-06T00:07:36.083Z,13.50
2017-12-06T00:10:03.550Z,12.40
2017-12-06T00:12:36.524Z,13.30
2017-12-06T00:15:09.605Z,13.73
2017-12-06T00:17:37.054Z,12.10
2017-12-06T00:20:04.517Z,13.20
2017-12-06T00:22:31.969Z,14.23
2017-12-06T00:24:59.438Z,12.30
2017-12-06T00:27:26.898Z,14.17
2017-12-06T00:29:54.368Z,15.20
2017-12-06T00:32:21.822Z,13.90
2017-12-06T00:34:49.295Z,14.47
2017-12-06T00:37:16.738Z,14.33
2017-12-06T00:39:44.222Z,13.83
2017-12-06T00:42:11.683Z,14.13
2017-12-06T00:44:39.139Z,13.43
2017-12-06T00:47:06.624Z,13.20
2017-12-06T00:49:34.127Z,14.90
2017-12-06T00:52:01.622Z,13.23
2017-12-06T00:54:29.062Z,14.53
2017-12-06T00:56:56.536Z,14.77
2017-12-06T00:59:23.978Z,14.10
2017-12-06T01:01:51.456Z,15.07
2017-12-06T01:04:18.902Z,12.97
2017-12-06T01:06:46.366Z,14.00
2017-12-06T01:09:13.819Z,13.47
2017-12-06T01:11:41.316Z,15.10
2017-12-06T01:14:08.760Z,15.97
2017-12-06T01:16:36.205Z,13.50
2017-12-06T01:19:03.668Z,14.10
2017-12-06T01:21:31.120Z,12.10
2017-12-06T01:23:58.591Z,12.40
2017-12-06T01:26:26.029Z,12.73
2017-12-06T01:28:53.507Z,13.23
2017-12-06T01:31:20.946Z,11.20
2017-12-06T01:33:48.427Z,12.80
2017-12-06T01:36:15.884Z,12.53
2017-12-06T01:38:43.355Z,11.10
2017-12-06T01:41:10.790Z,12.20
2017-12-06T01:43:38.268Z,10.13
2017-12-06T01:46:05.729Z,14.50
2017-12-06T01:48:33.212Z,11.50
2017-12-06T01:51:00.677Z,12.40
2017-12-06T01:53:28.161Z,13.33
2017-12-06T01:55:55.615Z,12.40
2017-12-06T01:58:23.081Z,13.97
2017-12-06T02:00:50.568Z,11.47
2017-12-06T02:03:18.036Z,14.17
2017-12-06T02:05:45.534Z,13.30
2017-12-06T02:08:13.001Z,13.00
2017-12-06T02:10:40.501Z,13.97
2017-12-06T02:13:07.964Z,13.43
2017-12-06T02:15:35.461Z,14.87
2017-12-06T02:18:02.930Z,14.50
2017-12-06T02:20:30.408Z,14.47
2017-12-06T02:22:57.860Z,12.87
2017-12-06T02:25:25.340Z,15.13
2017-12-06T02:27:52.799Z,16.67
2017-12-06T02:30:20.281Z,15.43
2017-12-06T02:32:47.746Z,16.53
2017-12-06T02:35:15.234Z,16.47
2017-12-06T02:37:42.725Z,14.90
2017-12-06T02:40:22.113Z,17.00
2017-12-06T02:43:01.470Z,16.50
2017-12-06T02:45:28.956Z,15.93
2017-12-06T02:47:56.444Z,15.87
2017-12-06T02:50:25.881Z,16.70
2017-12-06T02:52:53.340Z,17.70
2017-12-06T02:55:20.815Z,16.70
2017-12-06T02:57:48.295Z,16.33
2017-12-06T03:00:15.751Z,17.00
2017-12-06T03:02:43.233Z,16.10
2017-12-06T03:05:10.693Z,15.87
2017-12-06T03:07:38.187Z,14.87
2017-12-06T03:10:05.656Z,16.73
2017-12-06T03:12:33.145Z,14.20
2017-12-06T03:15:00.632Z,15.97
2017-12-06T03:17:28.112Z,17.47
2017-12-06T03:19:55.585Z,16.17
2017-12-06T03:22:23.081Z,17.40
2017-12-06T03:24:50.545Z,14.70
2017-12-06T03:27:18.029Z,16.10
2017-12-06T03:29:45.519Z,16.37
2017-12-06T03:32:12.997Z,16.50
2017-12-06T03:34:40.451Z,15.80
2017-12-06T03:37:07.917Z,15.77
2017-12-06T03:39:35.409Z,18.17
2017-12-06T03:42:02.877Z,17.53
2017-12-06T03:44:30.364Z,17.40
2017-12-06T03:46:57.833Z,15.70
2017-12-06T03:49:25.319Z,15.80
2017-12-06T03:51:52.782Z,15.83
2017-12-06T03:54:20.265Z,15.90
2017-12-06T03:56:47.732Z,17.10
2017-12-06T03:59:15.221Z,15.90
2017-12-06T04:01:42.773Z,16.13
2017-12-06T04:04:10.269Z,15.33
2017-12-06T04:06:37.743Z,14.73
2017-12-06T04:09:05.252Z,16.33
2017-12-06T04:11:32.716Z,14.87
2017-12-06T04:14:00.172Z,15.77
2017-12-06T04:16:27.662Z,16.30
2017-12-06T04:18:55.125Z,15.57
2017-12-06T04:21:22.610Z,14.67
2017-12-06T04:23:50.079Z,15.83
2017-12-06T04:26:17.568Z,15.20
2017-12-06T04:28:45.030Z,15.30
2017-12-06T04:31:12.513Z,15.50
2017-12-06T04:33:39.968Z,15.17
2017-12-06T04:36:07.453Z,15.90
2017-12-06T04:38:34.928Z,14.77
2017-12-06T04:41:02.427Z,14.93
2017-12-06T04:43:29.940Z,16.00
2017-12-06T04:45:57.438Z,14.23
2017-12-06T04:48:24.910Z,16.67
2017-12-06T04:50:52.391Z,14.70
2017-12-06T04:53:19.858Z,14.60
2017-12-06T04:55:47.316Z,14.90
2017-12-06T04:58:14.796Z,14.57
2017-12-06T05:00:42.256Z,16.30
2017-12-06T05:03:09.744Z,16.67
2017-12-06T05:05:37.221Z,16.90
2017-12-06T05:08:04.763Z,15.60
2017-12-06T05:10:32.228Z,14.40
2017-12-06T05:12:59.709Z,15.80
2017-12-06T05:15:28.042Z,15.03
2017-12-06T05:17:55.525Z,16.60
2017-12-06T05:20:22.989Z,14.77
2017-12-06T05:22:50.481Z,15.30
2017-12-06T05:25:17.932Z,15.50
2017-12-06T05:27:45.421Z,14.77
2017-12-06T05:30:12.879Z,15.20
2017-12-06T05:32:40.364Z,15.13
2017-12-06T05:35:07.833Z,15.27
2017-12-06T05:37:35.296Z,13.33
2017-12-06T05:40:02.785Z,15.67
2017-12-06T05:42:30.245Z,13.67
2017-12-06T05:44:57.738Z,15.73
2017-12-06T05:47:25.201Z,15.30
2017-12-06T05:49:52.684Z,14.50
2017-12-06T05:52:20.147Z,15.30
2017-12-06T05:54:47.645Z,15.43
2017-12-06T05:57:15.143Z,14.93
2017-12-06T05:59:42.636Z,14.60
2017-12-06T06:02:10.111Z,14.17
2017-12-06T06:04:37.592Z,15.50
2017-12-06T06:07:05.049Z,14.57
2017-12-06T06:09:32.541Z,13.23
2017-12-06T06:11:59.991Z,13.50
2017-12-06T06:14:27.440Z,14.70
2017-12-06T06:16:54.927Z,13.80
2017-12-06T06:19:22.389Z,13.53
2017-12-06T06:21:49.884Z,13.17
2017-12-06T06:24:17.345Z,13.40
2017-12-06T06:26:44.829Z,14.30
2017-12-06T06:29:12.305Z,14.20
2017-12-06T06:31:39.788Z,12.93
2017-12-06T06:34:07.247Z,13.10
2017-12-06T06:36:34.736Z,14.03
2017-12-06T06:39:02.244Z,13.93
2017-12-06T06:41:29.723Z,14.60
2017-12-06T06:43:57.261Z,12.90
2017-12-06T06:46:24.749Z,13.30
2017-12-06T06:48:52.217Z,14.20
2017-12-06T06:51:19.711Z,14.57
2017-12-06T06:53:47.199Z,12.63
2017-12-06T06:56:14.660Z,13.47
2017-12-06T06:58:42.142Z,12.47
2017-12-06T07:01:09.660Z,12.20
2017-12-06T07:03:37.142Z,12.57
2017-12-06T07:06:04.605Z,16.40
2017-12-06T07:08:32.085Z,17.07
2017-12-06T07:11:00.040Z,15.53
2017-12-06T07:13:27.560Z,14.67
2017-12-06T07:15:55.021Z,14.47
2017-12-06T07:18:26.312Z,13.70
2017-12-06T07:20:53.776Z,14.10
2017-12-06T07:23:21.277Z,12.27
2017-12-06T07:25:48.742Z,14.60
2017-12-06T07:28:16.252Z,12.53
2017-12-06T07:30:43.712Z,13.00
2017-12-06T07:33:11.209Z,13.50
2017-12-06T07:35:38.689Z,14.50
2017-12-06T07:38:06.178Z,12.27
2017-12-06T07:40:33.638Z,13.13
2017-12-06T07:43:01.127Z,11.50
2017-12-06T07:45:28.596Z,11.70
2017-12-06T07:47:56.069Z,11.20
2017-12-06T07:50:23.576Z,11.13
2017-12-06T07:52:51.048Z,10.37
2017-12-06T07:55:18.528Z,10.70
2017-12-06T07:57:46.000Z,11.83
2017-12-06T08:00:13.485Z,10.50
2017-12-06T08:02:40.956Z,11.13
2017-12-06T08:05:08.447Z,10.40
2017-12-06T08:07:35.917Z,11.57
2017-12-06T08:10:03.641Z,11.73
2017-12-06T08:12:31.102Z,12.10
2017-12-06T08:14:58.609Z,11.67
2017-12-06T08:17:26.064Z,10.13
2017-12-06T08:19:53.548Z,10.63
2017-12-06T08:22:21.013Z,11.60
2017-12-06T08:24:48.508Z,11.20
2017-12-06T08:27:15.969Z,12.13
2017-12-06T08:29:43.425Z,10.13
2017-12-06T08:32:10.952Z,10.27
2017-12-06T08:34:38.422Z,9.93
2017-12-06T08:37:05.900Z,11.33
2017-12-06T08:39:33.365Z,11.00
2017-12-06T08:42:00.858Z,11.10
2017-12-06T08:44:28.355Z,12.83
2017-12-06T08:46:55.871Z,9.90
2017-12-06T08:49:23.336Z,11.73
2017-12-06T08:51:50.820Z,11.93
2017-12-06T08:54:23.813Z,10.40
2017-12-06T08:56:51.297Z,12.93
2017-12-06T08:59:18.757Z,11.83
2017-12-06T09:01:46.293Z,10.57
2017-12-06T09:04:13.748Z,11.90
2017-12-06T09:06:41.290Z,16.57
2017-12-06T09:09:08.734Z,14.13
2017-12-06T09:11:36.220Z,11.67
2017-12-06T09:14:03.689Z,13.40
2017-12-06T09:16:31.192Z,16.47
2017-12-06T09:18:58.657Z,10.63
2017-12-06T09:21:26.122Z,10.60
2017-12-06T09:23:53.605Z,12.50
2017-12-06T09:26:21.069Z,13.17
2017-12-06T09:28:48.553Z,12.00
2017-12-06T09:31:16.016Z,13.00
2017-12-06T09:33:43.513Z,12.87
2017-12-06T09:36:10.985Z,11.20
2017-12-06T09:38:38.473Z,12.93
2017-12-06T09:41:05.937Z,15.63
2017-12-06T09:43:33.429Z,13.37
2017-12-06T09:46:00.946Z,11.37
2017-12-06T09:48:28.433Z,12.57
2017-12-06T09:50:55.897Z,13.60
2017-12-06T09:53:23.364Z,12.47
2017-12-06T09:55:50.843Z,12.80
2017-12-06T09:58:18.305Z,13.20
2017-12-06T10:00:45.788Z,13.47
2017-12-06T10:03:13.359Z,12.33
2017-12-06T10:05:41.093Z,12.00
2017-12-06T10:08:08.564Z,12.70
2017-12-06T10:10:36.050Z,11.73
2017-12-06T10:13:03.499Z,12.63
2017-12-06T10:15:30.985Z,12.10
2017-12-06T10:17:58.450Z,12.63
2017-12-06T10:20:25.941Z,12.10
2017-12-06T10:22:53.611Z,12.80
2017-12-06T10:25:21.325Z,11.93
2017-12-06T10:27:48.952Z,13.03
2017-12-06T10:30:16.531Z,12.83
2017-12-06T10:32:44.058Z,13.63
2017-12-06T10:35:11.525Z,11.80
2017-12-06T10:37:39.040Z,11.40
2017-12-06T10:40:06.500Z,12.87
2017-12-06T10:42:33.985Z,13.23
2017-12-06T10:45:01.440Z,11.20
2017-12-06T10:47:28.924Z,12.00
2017-12-06T10:49:56.401Z,12.40
2017-12-06T10:52:23.990Z,12.77
2017-12-06T10:54:51.550Z,12.60
2017-12-06T10:57:19.181Z,12.60
2017-12-06T10:59:46.752Z,11.93
2017-12-06T11:02:14.708Z,10.50
2017-12-06T11:04:42.325Z,13.10
2017-12-06T11:07:09.979Z,11.00
2017-12-06T11:09:37.601Z,11.63
2017-12-06T11:12:05.104Z,11.47
2017-12-06T11:14:32.588Z,10.33
2017-12-06T11:17:00.058Z,12.27
2017-12-06T11:19:27.563Z,9.63
2017-12-06T11:21:55.027Z,11.20
2017-12-06T11:24:22.513Z,11.27
2017-12-06T11:26:49.971Z,13.23
2017-12-06T11:29:17.471Z,11.03
2017-12-06T11:31:45.004Z,11.80
2017-12-06T11:34:13.352Z,10.70
2017-12-06T11:36:41.482Z,10.00
2017-12-06T11:39:09.487Z,9.00
2017-12-06T11:41:38.171Z,9.77
2017-12-06T11:44:05.645Z,9.67
2017-12-06T11:46:33.121Z,9.93
2017-12-06T11:49:00.575Z,8.93
2017-12-06T11:51:28.057Z,8.63
2017-12-06T11:53:55.531Z,9.23
2017-12-06T11:56:23.011Z,8.70
2017-12-06T11:58:50.477Z,8.20
2017-12-06T12:01:17.975Z,9.27
2017-12-06T12:03:45.431Z,9.87
2017-12-06T12:06:15.929Z,9.10
2017-12-06T12:08:43.397Z,8.43
2017-12-06T12:11:10.876Z,9.00
2017-12-06T12:13:38.336Z,8.73
2017-12-06T12:16:05.800Z,8.40
2017-12-06T12:18:33.282Z,9.03
2017-12-06T12:21:00.753Z,10.50
2017-12-06T12:23:28.238Z,8.83
2017-12-06T12:25:55.702Z,8.33
2017-12-06T12:28:23.276Z,8.73
2017-12-06T12:30:50.733Z,8.50
2017-12-06T12:33:18.228Z,10.03
2017-12-06T12:35:45.833Z,9.70
2017-12-06T12:38:13.317Z,8.87
2017-12-06T12:40:40.869Z,9.20
2017-12-06T12:43:08.352Z,9.03
2017-12-06T12:45:35.902Z,9.60
2017-12-06T12:48:03.453Z,8.17
2017-12-06T12:50:30.917Z,9.37
2017-12-06T12:52:58.381Z,8.10
2017-12-06T12:55:25.858Z,8.50
2017-12-06T13:00:27.166Z,8.17
2017-12-06T13:02:54.626Z,8.10
2017-12-06T13:05:22.193Z,8.17
2017-12-06T13:07:49.653Z,8.10
2017-12-06T13:10:17.159Z,8.30
2017-12-06T13:12:44.621Z,6.90
2017-12-06T13:15:12.080Z,9.30
2017-12-06T13:17:39.558Z,8.20
2017-12-06T13:20:07.044Z,8.60
2017-12-06T13:22:34.536Z,8.90
2017-12-06T13:25:01.995Z,9.20
2017-12-06T13:27:40.444Z,8.60
2017-12-06T13:30:07.987Z,8.73
2017-12-06T13:32:35.544Z,8.97
2017-12-06T13:35:03.035Z,10.20
2017-12-06T13:37:31.373Z,10.73
2017-12-06T13:39:58.866Z,10.40
2017-12-06T13:42:26.334Z,11.50
2017-12-06T13:44:53.824Z,10.20
2017-12-06T13:47:21.285Z,9.20
2017-12-06T13:49:48.805Z,9.83
2017-12-06T13:52:16.273Z,10.73
2017-12-06T13:54:43.757Z,10.47
2017-12-06T13:57:11.693Z,10.17
2017-12-06T13:59:39.798Z,10.47
2017-12-06T14:02:08.442Z,11.27
2017-12-06T14:04:36.895Z,11.60
2017-12-06T14:07:04.550Z,10.53
2017-12-06T14:09:33.052Z,10.47
2017-12-06T14:12:00.524Z,9.63
2017-12-06T14:14:28.033Z,10.50
2017-12-06T14:16:55.513Z,10.13
2017-12-06T14:19:22.977Z,11.33
2017-12-06T14:21:50.460Z,11.77
2017-12-06T14:24:17.912Z,9.70
2017-12-06T14:26:45.393Z,10.60
2017-12-06T14:29:12.859Z,12.20
2017-12-06T14:31:40.345Z,10.37
2017-12-06T14:34:07.809Z,10.37
2017-12-06T14:36:35.297Z,11.73
2017-12-06T14:39:02.744Z,9.97
2017-12-06T14:41:30.224Z,11.00
2017-12-06T14:43:57.689Z,10.77
2017-12-06T14:46:25.172Z,11.33
2017-12-06T14:48:52.636Z,11.13
2017-12-06T14:51:20.121Z,10.73
2017-12-06T14:53:48.123Z,9.97
2017-12-06T14:56:15.609Z,10.47
2017-12-06T14:58:43.098Z,11.70
2017-12-06T15:01:10.580Z,11.50
2017-12-06T15:03:38.044Z,11.10
2017-12-06T15:06:05.545Z,10.47
2017-12-06T15:08:33.021Z,10.90
2017-12-06T15:11:00.487Z,11.97
2017-12-06T15:13:28.053Z,11.20
2017-12-06T15:15:55.520Z,11.67
2017-12-06T15:18:23.001Z,11.00
2017-12-06T15:20:50.473Z,10.97
2017-12-06T15:23:17.971Z,12.80
2017-12-06T15:25:45.541Z,11.53
2017-12-06T15:28:13.033Z,12.00
2017-12-06T15:30:41.799Z,13.33
2017-12-06T15:33:09.293Z,12.47
2017-12-06T15:35:36.755Z,12.97
2017-12-06T15:38:04.245Z,11.37
2017-12-06T15:40:31.724Z,12.57
2017-12-06T15:42:59.228Z,14.33
2017-12-06T15:45:26.689Z,15.33
2017-12-06T15:47:54.824Z,15.50
2017-12-06T15:50:22.317Z,12.80
2017-12-06T15:52:49.790Z,12.00
2017-12-06T15:55:17.300Z,14.00
2017-12-06T15:57:44.771Z,11.80
2017-12-06T16:00:12.269Z,12.63
2017-12-06T16:02:39.724Z,13.03
2017-12-06T16:05:07.243Z,13.10
2017-12-06T16:07:34.704Z,11.10
2017-12-06T16:10:02.201Z,13.20
2017-12-06T16:12:29.660Z,12.10
2017-12-06T16:14:57.161Z,14.73
2017-12-06T16:17:24.697Z,12.27
2017-12-06T16:19:52.221Z,11.70
2017-12-06T16:22:19.680Z,12.67
2017-12-06T16:24:47.146Z,13.60
2017-12-06T16:27:14.632Z,13.87
2017-12-06T16:29:42.092Z,12.77
2017-12-06T16:32:09.580Z,10.83
2017-12-06T16:34:37.097Z,12.60
2017-12-06T16:37:16.620Z,13.80
2017-12-06T16:39:44.185Z,13.30
2017-12-06T16:42:11.664Z,12.20
2017-12-06T16:44:39.133Z,13.30
2017-12-06T16:47:06.621Z,12.50
2017-12-06T16:49:34.076Z,12.70
2017-12-06T16:52:01.559Z,12.70
2017-12-06T16:54:29.015Z,13.50
2017-12-06T16:56:56.529Z,13.30
2017-12-06T16:59:23.988Z,13.67
2017-12-06T17:01:51.456Z,12.90
2017-12-06T17:04:18.944Z,13.60
2017-12-06T17:06:46.409Z,12.60
2017-12-06T17:09:13.892Z,12.73
2017-12-06T17:11:41.361Z,12.50
2017-12-06T17:14:08.840Z,12.63
2017-12-06T17:16:36.305Z,13.40
2017-12-06T17:19:03.794Z,11.50
2017-12-06T17:21:31.262Z,13.63
2017-12-06T17:23:58.771Z,12.90
2017-12-06T17:26:26.449Z,13.20
2017-12-06T17:29:05.707Z,13.30
2017-12-06T17:31:47.068Z,12.80
2017-12-06T17:34:14.581Z,11.77
2017-12-06T17:39:19.750Z,13.27
2017-12-06T17:41:47.238Z,13.30
2017-12-06T17:44:14.699Z,12.80
2017-12-06T17:46:42.185Z,13.73
2017-12-06T17:49:09.724Z,14.20
2017-12-06T17:51:37.187Z,13.60
2017-12-06T17:54:04.748Z,12.80
2017-12-06T17:56:32.232Z,14.47
2017-12-06T17:58:59.765Z,14.60
2017-12-06T18:01:27.222Z,12.93
2017-12-06T18:03:54.681Z,12.83
2017-12-06T18:06:22.152Z,13.37
2017-12-06T18:08:49.641Z,13.17
2017-12-06T18:11:17.104Z,15.50
2017-12-06T18:13:44.593Z,13.70
2017-12-06T18:16:12.052Z,13.37
2017-12-06T18:18:39.581Z,13.80
2017-12-06T18:21:07.036Z,13.70
2017-12-06T18:23:34.522Z,13.80
2017-12-06T18:26:01.985Z,13.37
2017-12-06T18:28:29.468Z,12.70
2017-12-06T18:30:56.940Z,13.80
2017-12-06T18:33:24.442Z,13.43
2017-12-06T18:35:52.020Z,13.67
2017-12-06T18:38:19.489Z,12.47
2017-12-06T18:40:46.980Z,13.87
2017-12-06T18:43:14.441Z,12.93
2017-12-06T18:45:41.924Z,15.10
2017-12-06T18:48:09.393Z,12.27
2017-12-06T18:50:36.872Z,13.80
2017-12-06T18:53:04.417Z,13.07
2017-12-06T18:55:31.897Z,14.17
2017-12-06T18:57:59.440Z,14.60
2017-12-06T19:00:26.937Z,14.70
2017-12-06T19:02:54.405Z,14.30
2017-12-06T19:05:21.893Z,13.77
2017-12-06T19:07:49.361Z,14.40
2017-12-06T19:10:16.962Z,13.37
2017-12-06T19:12:44.392Z,13.50
2017-12-06T19:15:11.880Z,12.93
2017-12-06T19:17:39.350Z,12.40
2017-12-06T19:20:06.817Z,12.07
2017-12-06T19:22:34.297Z,13.70
2017-12-06T19:25:01.772Z,12.20
2017-12-06T19:27:29.277Z,12.43
2017-12-06T19:29:56.768Z,13.37
2017-12-06T19:32:24.256Z,13.10
2017-12-06T19:34:51.716Z,11.70
2017-12-06T19:37:19.205Z,14.27
2017-12-06T19:39:46.677Z,12.30
2017-12-06T19:42:14.166Z,13.63
2017-12-06T19:44:41.637Z,13.30
2017-12-06T19:47:09.122Z,12.40
2017-12-06T19:49:36.589Z,14.07
2017-12-06T19:52:04.095Z,15.13
2017-12-06T19:54:31.585Z,14.70
2017-12-06T19:56:59.089Z,13.07
2017-12-06T19:59:26.584Z,14.73
2017-12-06T20:01:54.049Z,14.57
2017-12-06T20:04:21.594Z,14.87
2017-12-06T20:06:49.055Z,16.30
2017-12-06T20:09:16.540Z,16.00
2017-12-06T20:11:44.001Z,15.80
2017-12-06T20:14:11.489Z,13.83
2017-12-06T20:16:38.948Z,14.73
2017-12-06T20:19:06.433Z,12.60
2017-12-06T20:21:33.906Z,15.00
2017-12-06T20:24:01.437Z,12.33
2017-12-06T20:26:28.953Z,14.00
2017-12-06T20:28:56.417Z,13.90
2017-12-06T20:31:23.905Z,13.10
2017-12-06T20:33:51.409Z,14.63
2017-12-06T20:36:18.895Z,15.90
2017-12-06T20:38:46.357Z,14.80
2017-12-06T20:41:13.840Z,17.00
2017-12-06T20:43:41.300Z,14.73
2017-12-06T20:46:08.776Z,13.20
2017-12-06T20:48:36.312Z,14.13
2017-12-06T20:51:03.795Z,13.50
2017-12-06T20:53:31.260Z,14.03
2017-12-06T20:55:58.745Z,12.50
2017-12-06T20:58:26.237Z,12.30
2017-12-06T21:00:53.740Z,15.67
2017-12-06T21:03:21.253Z,14.07
2017-12-06T21:05:48.756Z,11.90
2017-12-06T21:08:16.272Z,14.37
2017-12-06T21:10:43.736Z,10.77
2017-12-06T21:13:11.245Z,12.80
2017-12-06T21:15:38.767Z,12.17
2017-12-06T21:18:06.252Z,10.93
2017-12-06T21:20:33.737Z,11.33
2017-12-06T21:23:01.227Z,11.13
2017-12-06T21:25:28.688Z,11.13
2017-12-06T21:27:56.174Z,10.43
2017-12-06T21:30:23.633Z,9.33
2017-12-06T21:32:51.203Z,11.00
2017-12-06T21:35:18.635Z,10.40
2017-12-06T21:37:46.089Z,9.70
2017-12-06T21:40:13.600Z,9.60
2017-12-06T21:42:41.065Z,10.97
2017-12-06T21:45:08.545Z,9.70
2017-12-06T21:47:35.996Z,9.33
2017-12-06T21:50:03.481Z,9.87
2017-12-06T21:52:30.948Z,8.70
2017-12-06T21:54:58.429Z,8.80
2017-12-06T21:57:25.884Z,10.10
2017-12-06T21:59:53.415Z,9.57
2017-12-06T22:02:20.893Z,11.23
2017-12-06T22:05:00.354Z,11.47
2017-12-06T22:07:27.807Z,11.60
2017-12-06T22:09:55.345Z,11.27
2017-12-06T22:12:22.857Z,11.30
2017-12-06T22:14:50.318Z,10.47
2017-12-06T22:17:17.801Z,12.67
2017-12-06T22:19:45.281Z,10.77
2017-12-06T22:22:12.765Z,11.53
2017-12-06T22:24:40.316Z,10.97
2017-12-06T22:27:07.801Z,11.23
2017-12-06T22:29:35.256Z,10.97
2017-12-06T22:32:02.745Z,11.50
2017-12-06T22:34:30.213Z,12.37
2017-12-06T22:36:57.748Z,11.57
2017-12-06T22:39:26.135Z,11.90
2017-12-06T22:41:53.641Z,11.63
2017-12-06T22:44:21.117Z,12.63
2017-12-06T22:46:48.595Z,14.10
2017-12-06T22:49:16.056Z,13.80
2017-12-06T22:51:43.540Z,14.60
2017-12-06T22:54:11.001Z,15.73
2017-12-06T22:56:38.500Z,15.03
2017-12-06T22:59:05.964Z,14.50
2017-12-06T23:01:33.431Z,12.73
2017-12-06T23:04:00.912Z,12.47
2017-12-06T23:06:28.382Z,13.00
2017-12-06T23:08:55.869Z,13.40
2017-12-06T23:11:23.332Z,12.87
2017-12-06T23:13:50.815Z,13.20
2017-12-06T23:16:18.268Z,13.30
2017-12-06T23:18:45.748Z,14.00
2017-12-06T23:21:13.208Z,14.17
2017-12-06T23:23:40.694Z,12.70
2017-12-06T23:26:08.160Z,12.33
2017-12-06T23:28:35.648Z,12.20
2017-12-06T23:31:03.108Z,11.30
2017-12-06T23:33:30.589Z,13.83
2017-12-06T23:35:58.056Z,11.90
2017-12-06T23:38:25.549Z,11.83
2017-12-06T23:40:53.015Z,13.13
2017-12-06T23:43:20.881Z,11.50
2017-12-06T23:45:48.341Z,13.10
2017-12-06T23:48:15.828Z,11.20
2017-12-06T23:50:43.316Z,12.10
2017-12-06T23:53:10.777Z,10.90
2017-12-06T23:55:38.266Z,10.10
2017-12-06T23:58:05.733Z,10.87
